Terminal Aerodrome Forecast
Issued by NWS Atlanta, GA

Home | Current Version | Previous Version | Text Only | Print | Product List | Glossary On
Versions: 1 2 3 4 5 6 7 8 9 10 11 12 13 14 15
488
FTUS42 KFFC 241740
TAFCSG
TAF
KCSG 241740Z 2418/2518 24007KT P6SM SCT070
     FM250000 21003KT P6SM FEW080
     FM251500 24005KT P6SM FEW050
     FM251700 21007KT P6SM SCT060=

USA.gov is the U.S. government's official web portal to all federal, state and local government web resources and services.